createdAt,value
2022-11-18T00:01:15.853Z,21.23
2022-11-18T00:03:43.358Z,25.00
2022-11-18T00:06:18.996Z,24.17
2022-11-18T00:08:46.064Z,22.40
2022-11-18T00:11:38.451Z,22.92
2022-11-18T00:14:24.937Z,24.52
2022-11-18T00:17:00.057Z,24.23
2022-11-18T00:19:32.574Z,23.73
2022-11-18T00:21:59.724Z,23.25
2022-11-18T00:24:27.169Z,23.73
2022-11-18T00:26:54.601Z,22.23
2022-11-18T00:29:22.290Z,20.67
2022-11-18T00:31:49.403Z,21.77
2022-11-18T00:34:19.012Z,21.20
2022-11-18T00:36:47.407Z,20.25
2022-11-18T00:39:16.608Z,20.50
2022-11-18T00:42:02.659Z,24.20
2022-11-18T00:44:29.569Z,21.95
2022-11-18T00:46:56.766Z,24.45
2022-11-18T00:49:24.646Z,24.23
2022-11-18T00:51:51.695Z,24.48
2022-11-18T00:54:19.914Z,23.27
2022-11-18T00:56:47.227Z,27.25
2022-11-18T00:59:13.981Z,27.92
2022-11-18T01:01:40.945Z,23.95
2022-11-18T01:04:07.815Z,20.48
2022-11-18T01:06:34.593Z,23.98
2022-11-18T01:09:01.387Z,23.05
2022-11-18T01:11:46.483Z,22.90
2022-11-18T01:14:13.229Z,23.45
2022-11-18T01:16:40.108Z,25.15
2022-11-18T01:19:06.839Z,25.48
2022-11-18T01:21:33.783Z,26.73
2022-11-18T01:24:01.105Z,26.95
2022-11-18T01:26:27.802Z,26.30
2022-11-18T01:28:58.749Z,25.08
2022-11-18T01:31:25.587Z,26.60
2022-11-18T01:33:52.626Z,30.02
2022-11-18T01:36:22.745Z,33.53
2022-11-18T01:38:50.713Z,39.40
2022-11-18T01:41:18.989Z,46.70
2022-11-18T01:44:03.759Z,45.85
2022-11-18T01:46:32.767Z,42.75
2022-11-18T01:49:08.879Z,46.53
2022-11-18T01:51:49.723Z,33.75
2022-11-18T01:54:34.136Z,31.15
2022-11-18T01:57:04.943Z,29.63
2022-11-18T01:59:36.197Z,30.55
2022-11-18T02:02:10.897Z,27.27
2022-11-18T02:04:44.700Z,27.67
2022-11-18T02:07:12.492Z,29.15
2022-11-18T02:09:39.659Z,28.10
2022-11-18T02:12:08.021Z,27.83
2022-11-18T02:14:39.887Z,27.88
2022-11-18T02:17:37.125Z,28.20
2022-11-18T02:20:39.782Z,32.58
2022-11-18T02:23:09.350Z,27.60
2022-11-18T02:26:12.980Z,25.80
2022-11-18T02:29:17.056Z,26.75
2022-11-18T02:31:56.576Z,28.63
2022-11-18T02:34:50.488Z,28.13
2022-11-18T02:37:26.651Z,27.02
2022-11-18T02:40:07.834Z,27.85
2022-11-18T02:42:37.867Z,29.40
2022-11-18T02:45:14.818Z,28.75
2022-11-18T02:47:44.408Z,26.95
2022-11-18T02:50:16.746Z,32.25
2022-11-18T02:52:44.820Z,29.85
2022-11-18T02:55:14.858Z,28.15
2022-11-18T02:57:44.366Z,27.52
2022-11-18T03:00:11.778Z,25.38
2022-11-18T03:02:46.153Z,25.67
2022-11-18T03:05:48.925Z,28.88
2022-11-18T03:08:21.602Z,27.00
2022-11-18T03:11:00.111Z,29.55
2022-11-18T03:13:48.701Z,28.33
2022-11-18T03:16:21.269Z,26.80
2022-11-18T03:19:05.108Z,30.15
2022-11-18T03:21:45.601Z,30.60
2022-11-18T03:24:34.553Z,27.77
2022-11-18T03:27:14.024Z,27.50
2022-11-18T03:29:55.105Z,27.08
2022-11-18T03:32:28.661Z,24.73
2022-11-18T03:35:03.277Z,24.35
2022-11-18T03:37:33.852Z,24.60
2022-11-18T03:40:23.569Z,27.60
2022-11-18T03:43:13.195Z,23.58
2022-11-18T03:45:47.239Z,23.33
2022-11-18T03:48:18.306Z,24.50
2022-11-18T03:51:09.725Z,23.33
2022-11-18T03:53:48.709Z,24.98
2022-11-18T03:56:20.111Z,25.73
2022-11-18T03:58:54.000Z,27.50
2022-11-18T04:01:33.863Z,25.05
2022-11-18T04:04:00.852Z,26.60
2022-11-18T04:06:47.414Z,24.30
2022-11-18T04:09:24.294Z,26.48
2022-11-18T04:12:04.356Z,25.80
2022-11-18T04:14:43.351Z,24.38
2022-11-18T04:17:16.172Z,23.83
2022-11-18T04:19:43.186Z,24.27
2022-11-18T04:22:10.631Z,26.90
2022-11-18T04:24:37.763Z,28.88
2022-11-18T04:27:05.352Z,27.13
2022-11-18T04:29:32.881Z,27.48
2022-11-18T04:32:00.887Z,27.15
2022-11-18T04:34:29.253Z,29.75
2022-11-18T04:36:56.155Z,25.77
2022-11-18T04:39:23.061Z,29.70
2022-11-18T04:41:57.147Z,28.27
2022-11-18T04:44:28.626Z,28.38
2022-11-18T04:46:58.151Z,26.27
2022-11-18T04:49:26.086Z,25.20
2022-11-18T04:51:55.278Z,26.48
2022-11-18T04:54:23.520Z,27.23
2022-11-18T04:56:50.519Z,25.85
2022-11-18T04:59:23.395Z,26.63
2022-11-18T05:01:53.063Z,26.17
2022-11-18T05:04:22.243Z,26.20
2022-11-18T05:06:50.887Z,25.15
2022-11-18T05:09:18.500Z,25.50
2022-11-18T05:12:04.357Z,30.00
2022-11-18T05:14:31.697Z,26.40
2022-11-18T05:17:00.304Z,27.83
2022-11-18T05:19:27.181Z,29.27
2022-11-18T05:21:54.232Z,27.33
2022-11-18T05:24:24.132Z,27.35
2022-11-18T05:26:52.047Z,35.53
2022-11-18T05:29:20.337Z,33.13
2022-11-18T05:31:48.486Z,30.83
2022-11-18T05:34:15.890Z,28.10
2022-11-18T05:36:42.818Z,32.45
2022-11-18T05:39:10.208Z,26.92
2022-11-18T05:41:55.474Z,40.45
2022-11-18T05:44:22.185Z,39.17
2022-11-18T05:46:49.053Z,39.22
2022-11-18T05:49:18.058Z,44.80
2022-11-18T05:51:48.161Z,46.90
2022-11-18T05:54:17.286Z,53.70
2022-11-18T05:56:46.165Z,44.90
2022-11-18T05:59:14.233Z,50.15
2022-11-18T06:01:48.601Z,49.17
2022-11-18T06:04:25.493Z,52.83
2022-11-18T06:06:56.021Z,44.33
2022-11-18T06:09:26.800Z,54.45
2022-11-18T06:11:59.283Z,57.17
2022-11-18T06:14:43.095Z,54.70
2022-11-18T06:17:19.362Z,44.65
2022-11-18T06:19:46.405Z,41.72
2022-11-18T06:22:13.613Z,45.05
2022-11-18T06:24:42.222Z,39.88
2022-11-18T06:27:08.992Z,42.10
2022-11-18T06:29:35.770Z,44.45
2022-11-18T06:32:02.610Z,40.80
2022-11-18T06:34:29.328Z,42.45
2022-11-18T06:36:56.083Z,45.00
2022-11-18T06:39:25.070Z,48.22
2022-11-18T06:41:54.440Z,45.45
2022-11-18T06:44:21.750Z,41.35
2022-11-18T06:46:59.933Z,40.47
2022-11-18T06:49:27.978Z,52.80
2022-11-18T06:51:55.456Z,48.63
2022-11-18T06:54:22.689Z,41.53
2022-11-18T06:56:49.774Z,53.63
2022-11-18T06:59:22.302Z,50.08
2022-11-18T07:01:49.707Z,44.78
2022-11-18T07:04:16.718Z,48.58
2022-11-18T07:06:43.487Z,44.58
2022-11-18T07:09:10.296Z,46.70
2022-11-18T07:11:38.361Z,43.92
2022-11-18T07:14:05.364Z,47.22
2022-11-18T07:16:33.994Z,55.83
2022-11-18T07:19:00.768Z,65.80
2022-11-18T07:21:29.329Z,62.33
2022-11-18T07:23:57.532Z,60.17
2022-11-18T07:26:25.646Z,46.60
2022-11-18T07:28:53.850Z,56.17
2022-11-18T07:31:21.700Z,49.58
2022-11-18T07:33:53.663Z,52.58
2022-11-18T07:36:23.211Z,49.92
2022-11-18T07:38:50.640Z,56.05
2022-11-18T07:41:20.493Z,59.38
2022-11-18T07:43:48.300Z,57.78
2022-11-18T07:46:18.942Z,69.05
2022-11-18T07:48:47.617Z,60.40
2022-11-18T07:51:16.418Z,62.53
2022-11-18T07:53:44.053Z,55.45
2022-11-18T07:56:15.151Z,71.20
2022-11-18T07:58:42.517Z,56.80
2022-11-18T08:01:21.155Z,59.03
2022-11-18T08:03:48.949Z,56.13
2022-11-18T08:06:18.458Z,58.47
2022-11-18T08:08:45.777Z,56.83
2022-11-18T08:11:22.415Z,54.47
2022-11-18T08:13:51.197Z,59.38
2022-11-18T08:16:21.138Z,51.80
2022-11-18T08:18:48.674Z,51.80
2022-11-18T08:21:17.628Z,50.40
2022-11-18T08:23:49.527Z,49.22
2022-11-18T08:26:16.724Z,41.85
2022-11-18T08:28:45.045Z,47.55
2022-11-18T08:31:25.417Z,41.03
2022-11-18T08:34:04.160Z,38.40
2022-11-18T08:36:33.546Z,44.55
2022-11-18T08:39:03.165Z,39.05
2022-11-18T08:41:41.890Z,40.47
2022-11-18T08:44:12.972Z,44.33
2022-11-18T08:46:40.097Z,41.78
2022-11-18T08:49:07.013Z,38.00
2022-11-18T08:51:33.961Z,40.20
2022-11-18T08:54:02.005Z,35.42
2022-11-18T08:56:28.997Z,37.70
2022-11-18T08:58:56.126Z,41.97
2022-11-18T09:01:23.210Z,38.90
2022-11-18T09:03:52.033Z,38.17
2022-11-18T09:06:21.153Z,34.00
2022-11-18T09:08:48.576Z,33.88
2022-11-18T09:11:21.038Z,38.33
2022-11-18T09:14:32.689Z,32.72
2022-11-18T09:16:36.398Z,34.70
2022-11-18T09:19:24.804Z,29.50
2022-11-18T09:21:52.757Z,34.83
2022-11-18T09:24:20.237Z,29.95
2022-11-18T09:26:48.231Z,28.30
2022-11-18T09:29:15.248Z,28.95
2022-11-18T09:31:42.118Z,30.50
2022-11-18T09:34:10.566Z,30.50
2022-11-18T09:36:38.408Z,28.83
2022-11-18T09:39:05.318Z,27.08
2022-11-18T09:41:39.409Z,27.35
2022-11-18T09:44:27.811Z,25.20
2022-11-18T09:47:18.474Z,26.83
2022-11-18T09:49:46.672Z,31.00
2022-11-18T09:52:16.139Z,27.45
2022-11-18T09:54:43.143Z,32.50
2022-11-18T09:57:17.927Z,27.05
2022-11-18T09:59:45.080Z,25.33
2022-11-18T10:02:33.576Z,28.02
2022-11-18T10:05:16.511Z,27.17
2022-11-18T10:08:08.105Z,27.35
2022-11-18T10:10:48.514Z,30.33
2022-11-18T10:13:26.263Z,30.70
2022-11-18T10:16:17.239Z,30.52
2022-11-18T10:19:01.733Z,34.88
2022-11-18T10:21:46.168Z,35.55
2022-11-18T10:24:25.665Z,32.58
2022-11-18T10:26:58.162Z,31.90
2022-11-18T10:29:25.454Z,32.10
2022-11-18T10:32:08.603Z,29.73
2022-11-18T10:34:46.735Z,30.00
2022-11-18T10:38:06.172Z,31.63
2022-11-18T10:40:27.202Z,27.95
2022-11-18T10:42:54.528Z,31.35
2022-11-18T10:45:26.737Z,32.15
2022-11-18T10:48:02.620Z,28.63
2022-11-18T10:50:36.014Z,26.92
2022-11-18T10:53:03.116Z,27.20
2022-11-18T10:55:31.037Z,27.00
2022-11-18T10:58:10.603Z,24.15
2022-11-18T11:00:47.589Z,22.98
2022-11-18T11:03:28.758Z,23.58
2022-11-18T11:06:26.080Z,23.58
2022-11-18T11:13:30.721Z,24.90
2022-11-18T11:16:03.293Z,24.83
2022-11-18T11:18:43.032Z,22.60
2022-11-18T11:21:22.987Z,25.52
2022-11-18T11:23:49.930Z,27.05
2022-11-18T11:29:36.331Z,18.75
2022-11-18T11:32:24.656Z,22.63
2022-11-18T11:35:17.239Z,19.25
2022-11-18T11:38:00.870Z,21.60
2022-11-18T11:40:34.865Z,19.40
2022-11-18T11:43:26.540Z,21.00
2022-11-18T11:46:08.353Z,19.02
2022-11-18T11:48:38.278Z,20.70
2022-11-18T11:51:32.616Z,25.35
2022-11-18T11:54:02.583Z,17.13
2022-11-18T11:57:03.337Z,16.65
2022-11-18T11:59:47.648Z,17.63
2022-11-18T12:02:43.543Z,19.48
2022-11-18T12:05:26.694Z,15.18
2022-11-18T12:08:15.063Z,16.50
2022-11-18T12:10:50.799Z,14.68
2022-11-18T12:13:56.434Z,15.18
2022-11-18T12:16:51.781Z,13.35
2022-11-18T12:19:21.398Z,13.23
2022-11-18T12:21:54.414Z,16.23
2022-11-18T12:24:31.420Z,10.73
2022-11-18T12:27:27.841Z,12.30
2022-11-18T12:30:04.012Z,14.30
2022-11-18T12:32:47.047Z,14.07
2022-11-18T12:35:13.895Z,8.95
2022-11-18T12:37:44.374Z,8.63
2022-11-18T12:40:31.384Z,8.77
2022-11-18T12:43:16.536Z,7.78
2022-11-18T12:45:43.974Z,7.97
2022-11-18T12:48:35.647Z,7.93
2022-11-18T12:51:16.552Z,7.38
2022-11-18T12:53:48.010Z,9.52
2022-11-18T12:56:36.669Z,10.52
2022-11-18T12:59:03.766Z,7.57
2022-11-18T13:01:35.306Z,5.18
2022-11-18T13:04:22.656Z,6.95
2022-11-18T13:06:51.223Z,6.53
2022-11-18T13:09:26.195Z,6.97
2022-11-18T13:11:57.578Z,4.97
2022-11-18T13:15:00.214Z,4.75
2022-11-18T13:17:58.801Z,6.78
2022-11-18T13:20:36.029Z,8.20
2022-11-18T13:23:33.642Z,7.20
2022-11-18T13:26:07.033Z,7.30
2022-11-18T13:28:45.327Z,8.32
2022-11-18T13:31:21.997Z,8.43
2022-11-18T13:33:49.466Z,8.02
2022-11-18T13:36:25.513Z,7.57
2022-11-18T13:38:56.478Z,8.40
2022-11-18T13:41:24.769Z,8.23
2022-11-18T13:43:54.176Z,8.20
2022-11-18T13:46:22.951Z,7.88
2022-11-18T13:48:59.632Z,7.60
2022-11-18T13:51:26.906Z,7.47
2022-11-18T13:53:53.736Z,7.20
2022-11-18T13:56:25.677Z,6.68
2022-11-18T14:01:46.970Z,6.15
2022-11-18T14:04:23.207Z,7.03
2022-11-18T14:06:50.156Z,8.45
2022-11-18T14:09:31.085Z,9.00
2022-11-18T14:12:25.029Z,7.03
2022-11-18T14:14:52.313Z,8.63
2022-11-18T14:17:24.990Z,7.68
2022-11-18T14:19:53.263Z,8.68
2022-11-18T14:22:25.975Z,8.85
2022-11-18T14:25:00.041Z,7.57
2022-11-18T14:27:38.708Z,8.45
2022-11-18T14:30:27.853Z,8.48
2022-11-18T14:33:13.693Z,10.75
2022-11-18T14:35:42.413Z,11.10
2022-11-18T14:41:09.765Z,10.55
2022-11-18T14:43:36.670Z,9.65
2022-11-18T14:46:06.580Z,9.65
2022-11-18T14:48:34.065Z,9.57
2022-11-18T14:51:01.167Z,10.05
2022-11-18T14:53:28.047Z,10.73
2022-11-18T14:55:57.070Z,10.45
2022-11-18T14:58:24.142Z,10.73
2022-11-18T15:00:51.373Z,10.48
2022-11-18T15:03:19.623Z,9.95
2022-11-18T15:05:46.494Z,10.63
2022-11-18T15:08:13.701Z,9.30
2022-11-18T15:10:40.610Z,9.02
2022-11-18T15:13:08.626Z,9.25
2022-11-18T15:15:36.567Z,9.75
2022-11-18T15:18:03.886Z,9.18
2022-11-18T15:20:30.693Z,9.00
2022-11-18T15:22:57.391Z,10.77
2022-11-18T15:25:24.171Z,9.98
2022-11-18T15:27:51.025Z,7.85
2022-11-18T15:30:17.877Z,7.15
2022-11-18T15:32:44.757Z,8.68
2022-11-18T15:35:13.143Z,9.27
2022-11-18T15:37:40.395Z,8.55
2022-11-18T15:40:07.610Z,9.93
2022-11-18T15:42:42.348Z,8.35
2022-11-18T15:45:14.284Z,7.00
2022-11-18T15:47:43.659Z,8.88
2022-11-18T15:50:10.710Z,8.50
2022-11-18T15:52:37.635Z,7.00
2022-11-18T15:55:07.979Z,5.88
2022-11-18T15:57:34.989Z,5.47
2022-11-18T16:00:01.804Z,6.43
2022-11-18T16:02:30.496Z,6.28
2022-11-18T16:04:57.387Z,7.90
2022-11-18T16:07:24.366Z,6.90
2022-11-18T16:10:09.728Z,7.15
2022-11-18T16:12:48.687Z,7.97
2022-11-18T16:15:35.526Z,6.15
2022-11-18T16:18:03.048Z,6.45
2022-11-18T16:20:29.976Z,6.35
2022-11-18T16:22:57.755Z,7.25
2022-11-18T16:25:25.237Z,6.60
2022-11-18T16:27:52.277Z,6.38
2022-11-18T16:30:37.742Z,6.65
2022-11-18T16:33:04.741Z,6.50
2022-11-18T16:35:31.513Z,8.00
2022-11-18T16:37:58.303Z,8.57
2022-11-18T16:40:25.060Z,9.60
2022-11-18T16:42:52.625Z,9.32
2022-11-18T16:45:20.674Z,10.77
2022-11-18T16:47:47.557Z,9.82
2022-11-18T16:50:14.326Z,12.00
2022-11-18T16:52:41.184Z,10.50
2022-11-18T16:55:08.372Z,12.38
2022-11-18T16:57:35.172Z,11.45
2022-11-18T17:00:02.367Z,11.25
2022-11-18T17:02:31.508Z,11.68
2022-11-18T17:04:58.507Z,14.30
2022-11-18T17:07:25.403Z,13.00
2022-11-18T17:09:52.219Z,13.50
2022-11-18T17:12:19.224Z,13.52
2022-11-18T17:14:46.107Z,19.08
2022-11-18T17:17:14.918Z,14.55
2022-11-18T17:19:41.787Z,13.75
2022-11-18T17:22:08.652Z,14.77
2022-11-18T17:24:35.445Z,18.23
2022-11-18T17:27:02.632Z,15.57
2022-11-18T17:29:29.712Z,17.10
2022-11-18T17:31:56.806Z,20.10
2022-11-18T17:34:23.664Z,17.95
2022-11-18T17:36:50.553Z,22.00
2022-11-18T17:39:18.809Z,18.60
2022-11-18T17:42:04.213Z,20.50
2022-11-18T17:44:30.928Z,21.08
2022-11-18T17:46:57.659Z,20.90
2022-11-18T17:49:24.659Z,20.17
2022-11-18T17:51:51.754Z,20.38
2022-11-18T17:54:19.255Z,18.17
2022-11-18T17:56:47.375Z,18.67
2022-11-18T17:59:15.799Z,18.50
2022-11-18T18:01:42.905Z,18.83
2022-11-18T18:04:09.799Z,19.40
2022-11-18T18:06:36.750Z,19.63
2022-11-18T18:09:04.274Z,17.83
2022-11-18T18:11:31.375Z,19.60
2022-11-18T18:14:13.575Z,18.95
2022-11-18T18:16:46.031Z,18.13
2022-11-18T18:19:16.563Z,18.58
2022-11-18T18:21:45.319Z,19.00
2022-11-18T18:24:13.130Z,18.15
2022-11-18T18:26:40.079Z,21.42
2022-11-18T18:29:06.922Z,19.10
2022-11-18T18:31:36.322Z,21.73
2022-11-18T18:34:03.991Z,24.63
2022-11-18T18:36:33.705Z,20.38
2022-11-18T18:39:02.549Z,22.95
2022-11-18T18:41:30.155Z,20.60
2022-11-18T18:43:57.195Z,22.73
2022-11-18T18:46:29.154Z,23.88
2022-11-18T18:49:08.584Z,23.50
2022-11-18T18:51:43.333Z,24.45
2022-11-18T18:54:15.655Z,26.92
2022-11-18T18:56:43.168Z,28.97
2022-11-18T18:59:10.821Z,27.52
2022-11-18T19:01:38.527Z,27.88
2022-11-18T19:04:07.058Z,28.85
2022-11-18T19:06:59.443Z,28.88
2022-11-18T19:09:26.266Z,32.15
2022-11-18T19:12:11.654Z,33.90
2022-11-18T19:14:38.765Z,32.30
2022-11-18T19:17:10.732Z,39.08
2022-11-18T19:19:58.758Z,37.63
2022-11-18T19:22:25.722Z,34.08
2022-11-18T19:24:53.402Z,41.80
2022-11-18T19:27:21.863Z,39.45
2022-11-18T19:29:49.993Z,41.55
2022-11-18T19:32:16.812Z,38.40
2022-11-18T19:34:43.641Z,38.65
2022-11-18T19:37:11.079Z,39.13
2022-11-18T19:39:38.750Z,42.20
2022-11-18T19:42:06.111Z,43.40
2022-11-18T19:44:33.348Z,45.03
2022-11-18T19:47:00.213Z,48.75
2022-11-18T19:49:27.199Z,45.03
2022-11-18T19:51:54.036Z,41.38
2022-11-18T19:54:23.551Z,42.05
2022-11-18T19:56:50.358Z,47.83
2022-11-18T19:59:17.582Z,47.05
2022-11-18T20:01:44.814Z,50.38
2022-11-18T20:04:12.062Z,48.65
2022-11-18T20:06:40.163Z,50.13
2022-11-18T20:09:11.774Z,53.05
2022-11-18T20:11:45.030Z,57.28
2022-11-18T20:14:15.045Z,53.47
2022-11-18T20:16:41.966Z,48.03
2022-11-18T20:19:13.640Z,58.95
2022-11-18T20:21:43.520Z,56.70
2022-11-18T20:24:16.176Z,57.20
2022-11-18T20:26:44.013Z,55.15
2022-11-18T20:29:10.918Z,56.13
2022-11-18T20:31:37.822Z,56.58
2022-11-18T20:34:05.069Z,53.60
2022-11-18T20:36:34.592Z,53.72
2022-11-18T20:39:07.104Z,59.53
2022-11-18T20:41:35.167Z,55.75
2022-11-18T20:44:02.028Z,54.92
2022-11-18T20:46:29.269Z,56.67
2022-11-18T20:48:56.729Z,56.30
2022-11-18T20:51:26.112Z,51.78
2022-11-18T20:53:55.311Z,49.28
2022-11-18T20:56:27.141Z,51.67
2022-11-18T20:58:56.066Z,49.58
2022-11-18T21:01:28.749Z,53.55
2022-11-18T21:03:58.123Z,54.50
2022-11-18T21:06:27.427Z,48.17
2022-11-18T21:09:02.954Z,50.17
2022-11-18T21:11:33.258Z,55.17
2022-11-18T21:14:23.426Z,53.20
2022-11-18T21:16:55.306Z,52.50
2022-11-18T21:19:23.607Z,48.75
2022-11-18T21:21:52.777Z,54.22
2022-11-18T21:24:34.440Z,50.28
2022-11-18T21:27:02.735Z,51.58
2022-11-18T21:29:31.294Z,49.78
2022-11-18T21:32:01.471Z,51.28
2022-11-18T21:34:28.823Z,53.55
2022-11-18T21:36:55.989Z,50.80
2022-11-18T21:39:24.550Z,51.85
2022-11-18T21:41:55.606Z,50.05
2022-11-18T21:44:23.333Z,45.88
2022-11-18T21:46:50.143Z,46.15
2022-11-18T21:49:17.461Z,44.17
2022-11-18T21:51:45.553Z,48.30
2022-11-18T21:54:13.014Z,47.42
2022-11-18T21:56:39.945Z,42.80
2022-11-18T21:59:08.658Z,42.00
2022-11-18T22:01:35.416Z,47.95
2022-11-18T22:04:04.297Z,46.65
2022-11-18T22:06:33.628Z,45.38
2022-11-18T22:09:02.219Z,42.45
2022-11-18T22:11:29.110Z,48.63
2022-11-18T22:13:56.010Z,45.38
2022-11-18T22:16:24.578Z,42.63
2022-11-18T22:18:59.258Z,45.63
2022-11-18T22:21:28.478Z,42.67
2022-11-18T22:24:02.076Z,42.90
2022-11-18T22:26:29.779Z,42.42
2022-11-18T22:28:58.524Z,40.53
2022-11-18T22:31:28.121Z,38.80
2022-11-18T22:33:56.272Z,43.60
2022-11-18T22:36:43.412Z,42.22
2022-11-18T22:39:10.272Z,38.55
2022-11-18T22:41:56.051Z,40.92
2022-11-18T22:44:22.850Z,39.53
2022-11-18T22:46:49.721Z,46.40
2022-11-18T22:49:16.906Z,37.67
2022-11-18T22:51:44.076Z,41.35
2022-11-18T22:57:00.581Z,43.65
2022-11-18T22:59:27.597Z,44.50
2022-11-18T23:01:54.744Z,42.95
2022-11-18T23:04:22.118Z,45.28
2022-11-18T23:06:49.770Z,39.42
2022-11-18T23:09:17.155Z,41.42
2022-11-18T23:12:03.502Z,40.90
2022-11-18T23:14:30.508Z,39.95
2022-11-18T23:16:57.285Z,41.75
2022-11-18T23:19:24.112Z,44.38
2022-11-18T23:21:50.929Z,43.88
2022-11-18T23:24:19.538Z,37.00
2022-11-18T23:26:47.286Z,42.78
2022-11-18T23:29:15.028Z,42.25
2022-11-18T23:31:43.735Z,39.38
2022-11-18T23:34:15.848Z,38.90
2022-11-18T23:36:43.896Z,43.33
2022-11-18T23:39:11.134Z,42.08
2022-11-18T23:41:38.073Z,39.20
2022-11-18T23:44:06.596Z,39.65
2022-11-18T23:46:33.969Z,42.20
2022-11-18T23:49:02.675Z,40.92
2022-11-18T23:51:30.874Z,34.28
2022-11-18T23:53:58.222Z,42.25
2022-11-18T23:56:27.503Z,35.58
2022-11-18T23:58:56.453Z,40.72
